sensor_id;sensor_type;location;lat;lon;timestamp;temperature;humidity
5743;DHT22;2896;53.500;10.020;2023-11-19T00:01:32;5.60;99.90
5743;DHT22;2896;53.500;10.020;2023-11-19T00:03:59;5.70;99.90
5743;DHT22;2896;53.500;10.020;2023-11-19T00:06:26;5.60;99.90
5743;DHT22;2896;53.500;10.020;2023-11-19T00:08:53;5.60;99.90
5743;DHT22;2896;53.500;10.020;2023-11-19T00:11:19;5.60;99.90
5743;DHT22;2896;53.500;10.020;2023-11-19T00:13:48;5.60;99.90
5743;DHT22;2896;53.500;10.020;2023-11-19T00:16:14;5.60;99.90
5743;DHT22;2896;53.500;10.020;2023-11-19T00:18:42;5.70;99.90
5743;DHT22;2896;53.500;10.020;2023-11-19T00:21:08;5.80;99.90
5743;DHT22;2896;53.500;10.020;2023-11-19T00:23:35;5.70;99.90
5743;DHT22;2896;53.500;10.020;2023-11-19T00:26:02;5.70;99.90
5743;DHT22;2896;53.500;10.020;2023-11-19T00:28:31;5.70;99.90
5743;DHT22;2896;53.500;10.020;2023-11-19T00:30:59;5.60;99.90
5743;DHT22;2896;53.500;10.020;2023-11-19T00:33:26;5.80;99.90
5743;DHT22;2896;53.500;10.020;2023-11-19T00:35:52;5.60;99.90
5743;DHT22;2896;53.500;10.020;2023-11-19T00:38:19;5.60;99.90
5743;DHT22;2896;53.500;10.020;2023-11-19T00:40:45;7.50;99.90
5743;DHT22;2896;53.500;10.020;2023-11-19T00:43:12;5.90;99.90
5743;DHT22;2896;53.500;10.020;2023-11-19T00:45:38;5.70;99.90
5743;DHT22;2896;53.500;10.020;2023-11-19T00:48:06;5.70;99.90
5743;DHT22;2896;53.500;10.020;2023-11-19T00:50:33;5.60;99.90
5743;DHT22;2896;53.500;10.020;2023-11-19T00:53:00;5.60;99.90
5743;DHT22;2896;53.500;10.020;2023-11-19T00:55:28;5.70;99.90
5743;DHT22;2896;53.500;10.020;2023-11-19T00:57:55;5.60;99.90
5743;DHT22;2896;53.500;10.020;2023-11-19T01:00:22;5.60;99.90
5743;DHT22;2896;53.500;10.020;2023-11-19T01:02:52;7.70;99.90
5743;DHT22;2896;53.500;10.020;2023-11-19T01:05:20;5.70;99.90
5743;DHT22;2896;53.500;10.020;2023-11-19T01:07:48;5.70;99.90
5743;DHT22;2896;53.500;10.020;2023-11-19T01:10:15;5.60;99.90
5743;DHT22;2896;53.500;10.020;2023-11-19T01:12:44;5.70;99.90
5743;DHT22;2896;53.500;10.020;2023-11-19T01:15:10;5.60;99.90
5743;DHT22;2896;53.500;10.020;2023-11-19T01:17:38;5.70;99.90
5743;DHT22;2896;53.500;10.020;2023-11-19T01:20:06;5.70;99.90
5743;DHT22;2896;53.500;10.020;2023-11-19T01:22:39;5.70;99.90
5743;DHT22;2896;53.500;10.020;2023-11-19T01:25:06;5.70;99.90
5743;DHT22;2896;53.500;10.020;2023-11-19T01:27:33;5.80;99.90
5743;DHT22;2896;53.500;10.020;2023-11-19T01:30:01;5.80;99.90
5743;DHT22;2896;53.500;10.020;2023-11-19T01:32:29;5.80;99.90
5743;DHT22;2896;53.500;10.020;2023-11-19T01:34:55;5.60;99.90
5743;DHT22;2896;53.500;10.020;2023-11-19T01:37:22;5.70;99.90
5743;DHT22;2896;53.500;10.020;2023-11-19T01:39:50;5.80;99.90
5743;DHT22;2896;53.500;10.020;2023-11-19T01:42:16;5.80;99.90
5743;DHT22;2896;53.500;10.020;2023-11-19T01:44:55;5.80;99.90
5743;DHT22;2896;53.500;10.020;2023-11-19T01:47:24;5.80;99.90
5743;DHT22;2896;53.500;10.020;2023-11-19T01:49:51;5.80;99.90
5743;DHT22;2896;53.500;10.020;2023-11-19T01:52:18;5.80;99.90
5743;DHT22;2896;53.500;10.020;2023-11-19T01:54:45;5.80;99.90
5743;DHT22;2896;53.500;10.020;2023-11-19T01:57:14;5.80;99.90
5743;DHT22;2896;53.500;10.020;2023-11-19T01:59:41;5.80;99.90
5743;DHT22;2896;53.500;10.020;2023-11-19T02:02:08;5.80;99.90
5743;DHT22;2896;53.500;10.020;2023-11-19T02:04:35;5.90;99.90
5743;DHT22;2896;53.500;10.020;2023-11-19T02:07:03;5.90;99.90
5743;DHT22;2896;53.500;10.020;2023-11-19T02:09:30;5.90;99.90
5743;DHT22;2896;53.500;10.020;2023-11-19T02:11:57;6.00;99.90
5743;DHT22;2896;53.500;10.020;2023-11-19T02:14:25;5.90;99.90
5743;DHT22;2896;53.500;10.020;2023-11-19T02:16:52;5.90;99.90
5743;DHT22;2896;53.500;10.020;2023-11-19T02:19:19;5.90;99.90
5743;DHT22;2896;53.500;10.020;2023-11-19T02:21:46;5.90;99.90
5743;DHT22;2896;53.500;10.020;2023-11-19T02:24:14;5.90;99.90
5743;DHT22;2896;53.500;10.020;2023-11-19T02:26:50;5.90;99.90
5743;DHT22;2896;53.500;10.020;2023-11-19T02:29:19;6.00;99.90
5743;DHT22;2896;53.500;10.020;2023-11-19T02:31:46;6.00;99.90
5743;DHT22;2896;53.500;10.020;2023-11-19T02:34:12;5.90;99.90
5743;DHT22;2896;53.500;10.020;2023-11-19T02:36:39;6.00;99.90
5743;DHT22;2896;53.500;10.020;2023-11-19T02:39:06;5.80;99.90
5743;DHT22;2896;53.500;10.020;2023-11-19T02:41:36;6.00;99.90
5743;DHT22;2896;53.500;10.020;2023-11-19T02:44:05;6.00;99.90
5743;DHT22;2896;53.500;10.020;2023-11-19T02:46:33;5.90;99.90
5743;DHT22;2896;53.500;10.020;2023-11-19T02:49:00;5.90;99.90
5743;DHT22;2896;53.500;10.020;2023-11-19T02:51:27;6.00;99.90
5743;DHT22;2896;53.500;10.020;2023-11-19T02:53:55;6.00;99.90
5743;DHT22;2896;53.500;10.020;2023-11-19T02:56:22;5.90;99.90
5743;DHT22;2896;53.500;10.020;2023-11-19T02:58:52;5.90;99.90
5743;DHT22;2896;53.500;10.020;2023-11-19T03:01:22;6.00;99.90
5743;DHT22;2896;53.500;10.020;2023-11-19T03:03:56;6.10;99.90
5743;DHT22;2896;53.500;10.020;2023-11-19T03:06:23;6.10;99.90
5743;DHT22;2896;53.500;10.020;2023-11-19T03:08:50;6.10;99.90
5743;DHT22;2896;53.500;10.020;2023-11-19T03:11:17;6.10;99.90
5743;DHT22;2896;53.500;10.020;2023-11-19T03:13:44;7.70;99.90
5743;DHT22;2896;53.500;10.020;2023-11-19T03:16:12;6.10;99.90
5743;DHT22;2896;53.500;10.020;2023-11-19T03:18:38;6.10;99.90
5743;DHT22;2896;53.500;10.020;2023-11-19T03:21:07;6.20;99.90
5743;DHT22;2896;53.500;10.020;2023-11-19T03:23:34;6.10;99.90
5743;DHT22;2896;53.500;10.020;2023-11-19T03:26:01;6.10;99.90
5743;DHT22;2896;53.500;10.020;2023-11-19T03:28:30;6.10;99.90
5743;DHT22;2896;53.500;10.020;2023-11-19T03:30:57;6.10;99.90
5743;DHT22;2896;53.500;10.020;2023-11-19T03:33:24;6.20;99.90
5743;DHT22;2896;53.500;10.020;2023-11-19T03:35:51;6.20;99.90
5743;DHT22;2896;53.500;10.020;2023-11-19T03:38:19;6.20;99.90
5743;DHT22;2896;53.500;10.020;2023-11-19T03:40:46;6.20;99.90
5743;DHT22;2896;53.500;10.020;2023-11-19T03:43:12;6.20;99.90
5743;DHT22;2896;53.500;10.020;2023-11-19T03:45:39;6.20;99.90
5743;DHT22;2896;53.500;10.020;2023-11-19T03:48:06;6.30;99.90
5743;DHT22;2896;53.500;10.020;2023-11-19T03:50:33;6.20;99.90
5743;DHT22;2896;53.500;10.020;2023-11-19T03:53:00;6.20;99.90
5743;DHT22;2896;53.500;10.020;2023-11-19T03:55:29;6.20;99.90
5743;DHT22;2896;53.500;10.020;2023-11-19T03:57:56;6.20;99.90
5743;DHT22;2896;53.500;10.020;2023-11-19T04:00:23;6.20;99.90
5743;DHT22;2896;53.500;10.020;2023-11-19T04:02:50;6.20;99.90
5743;DHT22;2896;53.500;10.020;2023-11-19T04:05:16;6.30;99.90
5743;DHT22;2896;53.500;10.020;2023-11-19T04:07:44;6.30;99.90
5743;DHT22;2896;53.500;10.020;2023-11-19T04:10:10;6.30;99.90
5743;DHT22;2896;53.500;10.020;2023-11-19T04:12:38;6.30;99.90
5743;DHT22;2896;53.500;10.020;2023-11-19T04:15:06;6.30;99.90
5743;DHT22;2896;53.500;10.020;2023-11-19T04:17:34;6.30;99.90
5743;DHT22;2896;53.500;10.020;2023-11-19T04:20:01;6.30;99.90
5743;DHT22;2896;53.500;10.020;2023-11-19T04:22:29;6.30;99.90
5743;DHT22;2896;53.500;10.020;2023-11-19T04:24:56;6.30;99.90
5743;DHT22;2896;53.500;10.020;2023-11-19T04:27:23;6.30;99.90
5743;DHT22;2896;53.500;10.020;2023-11-19T04:29:52;6.40;99.90
5743;DHT22;2896;53.500;10.020;2023-11-19T04:32:18;6.30;99.90
5743;DHT22;2896;53.500;10.020;2023-11-19T04:34:46;6.40;99.90
5743;DHT22;2896;53.500;10.020;2023-11-19T04:37:13;6.40;99.90
5743;DHT22;2896;53.500;10.020;2023-11-19T04:39:39;6.40;99.90
5743;DHT22;2896;53.500;10.020;2023-11-19T04:42:06;6.40;99.90
5743;DHT22;2896;53.500;10.020;2023-11-19T04:44:33;6.50;99.90
5743;DHT22;2896;53.500;10.020;2023-11-19T04:47:01;6.50;99.90
5743;DHT22;2896;53.500;10.020;2023-11-19T04:49:27;6.50;99.90
5743;DHT22;2896;53.500;10.020;2023-11-19T04:51:54;6.50;99.90
5743;DHT22;2896;53.500;10.020;2023-11-19T04:54:20;6.50;99.90
5743;DHT22;2896;53.500;10.020;2023-11-19T04:56:47;6.50;99.90
5743;DHT22;2896;53.500;10.020;2023-11-19T04:59:14;6.50;99.90
5743;DHT22;2896;53.500;10.020;2023-11-19T05:01:41;6.60;99.90
5743;DHT22;2896;53.500;10.020;2023-11-19T05:04:09;6.60;99.90
5743;DHT22;2896;53.500;10.020;2023-11-19T05:06:36;6.60;99.90
5743;DHT22;2896;53.500;10.020;2023-11-19T05:09:03;6.70;99.90
5743;DHT22;2896;53.500;10.020;2023-11-19T05:11:31;6.70;99.90
5743;DHT22;2896;53.500;10.020;2023-11-19T05:13:58;8.00;99.90
5743;DHT22;2896;53.500;10.020;2023-11-19T05:16:25;6.80;99.90
5743;DHT22;2896;53.500;10.020;2023-11-19T05:18:52;6.80;99.90
5743;DHT22;2896;53.500;10.020;2023-11-19T05:21:20;6.90;99.90
5743;DHT22;2896;53.500;10.020;2023-11-19T05:23:46;6.90;99.90
5743;DHT22;2896;53.500;10.020;2023-11-19T05:26:17;7.00;99.90
5743;DHT22;2896;53.500;10.020;2023-11-19T05:28:44;7.10;99.90
5743;DHT22;2896;53.500;10.020;2023-11-19T05:31:11;7.10;99.90
5743;DHT22;2896;53.500;10.020;2023-11-19T05:33:38;7.30;99.90
5743;DHT22;2896;53.500;10.020;2023-11-19T05:36:05;7.60;99.90
5743;DHT22;2896;53.500;10.020;2023-11-19T05:38:34;8.40;99.90
5743;DHT22;2896;53.500;10.020;2023-11-19T05:41:01;8.60;99.90
5743;DHT22;2896;53.500;10.020;2023-11-19T05:43:28;8.90;99.90
5743;DHT22;2896;53.500;10.020;2023-11-19T05:45:54;9.00;99.90
5743;DHT22;2896;53.500;10.020;2023-11-19T05:48:21;9.20;99.90
5743;DHT22;2896;53.500;10.020;2023-11-19T05:50:48;9.40;99.90
5743;DHT22;2896;53.500;10.020;2023-11-19T05:53:15;9.50;99.90
5743;DHT22;2896;53.500;10.020;2023-11-19T05:55:43;11.00;99.90
5743;DHT22;2896;53.500;10.020;2023-11-19T05:58:14;9.60;99.90
5743;DHT22;2896;53.500;10.020;2023-11-19T06:00:41;9.60;99.90
5743;DHT22;2896;53.500;10.020;2023-11-19T06:03:07;9.60;99.90
5743;DHT22;2896;53.500;10.020;2023-11-19T06:05:34;9.70;99.90
5743;DHT22;2896;53.500;10.020;2023-11-19T06:08:00;9.70;99.90
5743;DHT22;2896;53.500;10.020;2023-11-19T06:10:27;9.80;99.90
5743;DHT22;2896;53.500;10.020;2023-11-19T06:12:58;9.90;99.90
5743;DHT22;2896;53.500;10.020;2023-11-19T06:15:25;9.90;99.90
5743;DHT22;2896;53.500;10.020;2023-11-19T06:17:51;10.10;99.90
5743;DHT22;2896;53.500;10.020;2023-11-19T06:20:18;10.10;99.90
5743;DHT22;2896;53.500;10.020;2023-11-19T06:22:45;10.10;99.90
5743;DHT22;2896;53.500;10.020;2023-11-19T06:25:12;10.20;99.90
5743;DHT22;2896;53.500;10.020;2023-11-19T06:27:40;10.10;99.90
5743;DHT22;2896;53.500;10.020;2023-11-19T06:30:08;10.20;99.90
5743;DHT22;2896;53.500;10.020;2023-11-19T06:32:35;11.50;99.90
5743;DHT22;2896;53.500;10.020;2023-11-19T06:35:02;10.40;99.90
5743;DHT22;2896;53.500;10.020;2023-11-19T06:37:30;10.40;99.90
5743;DHT22;2896;53.500;10.020;2023-11-19T06:39:56;10.40;99.90
5743;DHT22;2896;53.500;10.020;2023-11-19T06:42:23;10.50;99.90
5743;DHT22;2896;53.500;10.020;2023-11-19T06:44:49;10.40;99.90
5743;DHT22;2896;53.500;10.020;2023-11-19T06:47:18;10.40;99.90
5743;DHT22;2896;53.500;10.020;2023-11-19T06:49:44;10.50;99.90
5743;DHT22;2896;53.500;10.020;2023-11-19T06:52:11;10.50;99.90
5743;DHT22;2896;53.500;10.020;2023-11-19T06:54:38;10.60;99.90
5743;DHT22;2896;53.500;10.020;2023-11-19T06:57:05;10.60;99.90
5743;DHT22;2896;53.500;10.020;2023-11-19T06:59:32;10.60;99.90
5743;DHT22;2896;53.500;10.020;2023-11-19T07:01:58;10.70;99.90
5743;DHT22;2896;53.500;10.020;2023-11-19T07:04:26;10.60;99.90
5743;DHT22;2896;53.500;10.020;2023-11-19T07:06:53;10.60;99.90
5743;DHT22;2896;53.500;10.020;2023-11-19T07:09:19;10.80;99.90
5743;DHT22;2896;53.500;10.020;2023-11-19T07:11:46;10.80;99.90
5743;DHT22;2896;53.500;10.020;2023-11-19T07:14:13;10.90;99.90
5743;DHT22;2896;53.500;10.020;2023-11-19T07:16:40;10.90;99.90
5743;DHT22;2896;53.500;10.020;2023-11-19T07:19:06;10.80;99.90
5743;DHT22;2896;53.500;10.020;2023-11-19T07:21:34;10.80;99.90
5743;DHT22;2896;53.500;10.020;2023-11-19T07:24:05;10.90;99.90
5743;DHT22;2896;53.500;10.020;2023-11-19T07:26:32;10.90;99.90
5743;DHT22;2896;53.500;10.020;2023-11-19T07:28:59;10.90;99.90
5743;DHT22;2896;53.500;10.020;2023-11-19T07:31:27;11.00;99.90
5743;DHT22;2896;53.500;10.020;2023-11-19T07:33:53;11.00;99.90
5743;DHT22;2896;53.500;10.020;2023-11-19T07:36:20;11.00;99.90
5743;DHT22;2896;53.500;10.020;2023-11-19T07:38:48;11.00;99.90
5743;DHT22;2896;53.500;10.020;2023-11-19T07:41:15;11.10;99.90
5743;DHT22;2896;53.500;10.020;2023-11-19T07:43:43;11.00;99.90
5743;DHT22;2896;53.500;10.020;2023-11-19T07:46:11;11.10;99.90
5743;DHT22;2896;53.500;10.020;2023-11-19T07:48:39;11.10;99.90
5743;DHT22;2896;53.500;10.020;2023-11-19T07:51:05;11.10;99.90
5743;DHT22;2896;53.500;10.020;2023-11-19T07:53:32;11.20;99.90
5743;DHT22;2896;53.500;10.020;2023-11-19T07:56:00;11.30;99.90
5743;DHT22;2896;53.500;10.020;2023-11-19T07:58:27;11.40;99.90
5743;DHT22;2896;53.500;10.020;2023-11-19T08:00:54;11.40;99.90
5743;DHT22;2896;53.500;10.020;2023-11-19T08:03:21;11.40;99.90
5743;DHT22;2896;53.500;10.020;2023-11-19T08:05:48;11.40;99.90
5743;DHT22;2896;53.500;10.020;2023-11-19T08:08:15;11.30;99.90
5743;DHT22;2896;53.500;10.020;2023-11-19T08:10:42;11.40;99.90
5743;DHT22;2896;53.500;10.020;2023-11-19T08:13:11;11.30;99.90
5743;DHT22;2896;53.500;10.020;2023-11-19T08:15:38;11.30;99.90
5743;DHT22;2896;53.500;10.020;2023-11-19T08:18:05;11.30;99.90
5743;DHT22;2896;53.500;10.020;2023-11-19T08:20:32;11.40;99.90
5743;DHT22;2896;53.500;10.020;2023-11-19T08:22:59;11.40;99.90
5743;DHT22;2896;53.500;10.020;2023-11-19T08:25:25;11.40;99.90
5743;DHT22;2896;53.500;10.020;2023-11-19T08:27:52;11.40;99.90
5743;DHT22;2896;53.500;10.020;2023-11-19T08:30:20;11.40;99.90
5743;DHT22;2896;53.500;10.020;2023-11-19T08:32:46;11.40;99.90
5743;DHT22;2896;53.500;10.020;2023-11-19T08:35:13;11.40;99.90
5743;DHT22;2896;53.500;10.020;2023-11-19T08:37:41;11.40;99.90
5743;DHT22;2896;53.500;10.020;2023-11-19T08:40:08;11.50;99.90
5743;DHT22;2896;53.500;10.020;2023-11-19T08:42:36;11.60;99.90
5743;DHT22;2896;53.500;10.020;2023-11-19T08:45:05;11.60;99.90
5743;DHT22;2896;53.500;10.020;2023-11-19T08:47:33;11.60;99.90
5743;DHT22;2896;53.500;10.020;2023-11-19T08:50:00;11.60;99.90
5743;DHT22;2896;53.500;10.020;2023-11-19T08:52:26;11.60;99.90
5743;DHT22;2896;53.500;10.020;2023-11-19T08:54:53;11.70;99.90
5743;DHT22;2896;53.500;10.020;2023-11-19T08:57:20;11.80;99.90
5743;DHT22;2896;53.500;10.020;2023-11-19T08:59:46;11.80;99.90
5743;DHT22;2896;53.500;10.020;2023-11-19T09:02:13;11.90;99.90
5743;DHT22;2896;53.500;10.020;2023-11-19T09:04:41;11.90;99.90
5743;DHT22;2896;53.500;10.020;2023-11-19T09:07:08;11.90;99.90
5743;DHT22;2896;53.500;10.020;2023-11-19T09:09:34;11.90;99.90
5743;DHT22;2896;53.500;10.020;2023-11-19T09:12:02;11.90;99.90
5743;DHT22;2896;53.500;10.020;2023-11-19T09:14:29;11.90;99.90
5743;DHT22;2896;53.500;10.020;2023-11-19T09:16:56;11.90;99.90
5743;DHT22;2896;53.500;10.020;2023-11-19T09:19:23;10.50;99.90
5743;DHT22;2896;53.500;10.020;2023-11-19T09:21:51;12.00;99.90
5743;DHT22;2896;53.500;10.020;2023-11-19T09:24:18;12.00;99.90
5743;DHT22;2896;53.500;10.020;2023-11-19T09:26:45;12.00;99.90
5743;DHT22;2896;53.500;10.020;2023-11-19T09:29:11;12.10;99.90
5743;DHT22;2896;53.500;10.020;2023-11-19T09:31:39;12.00;99.90
5743;DHT22;2896;53.500;10.020;2023-11-19T09:34:06;12.00;99.90
5743;DHT22;2896;53.500;10.020;2023-11-19T09:36:33;12.10;99.90
5743;DHT22;2896;53.500;10.020;2023-11-19T09:39:01;12.10;99.90
5743;DHT22;2896;53.500;10.020;2023-11-19T09:41:29;12.10;99.90
5743;DHT22;2896;53.500;10.020;2023-11-19T09:43:56;12.10;99.90
5743;DHT22;2896;53.500;10.020;2023-11-19T09:46:22;12.10;99.90
5743;DHT22;2896;53.500;10.020;2023-11-19T09:48:53;12.10;99.90
5743;DHT22;2896;53.500;10.020;2023-11-19T09:51:20;12.10;99.90
5743;DHT22;2896;53.500;10.020;2023-11-19T09:53:47;12.00;99.90
5743;DHT22;2896;53.500;10.020;2023-11-19T09:56:16;12.00;99.90
5743;DHT22;2896;53.500;10.020;2023-11-19T09:58:43;12.00;99.90
5743;DHT22;2896;53.500;10.020;2023-11-19T10:01:09;12.00;99.90
5743;DHT22;2896;53.500;10.020;2023-11-19T10:03:39;12.00;99.90
5743;DHT22;2896;53.500;10.020;2023-11-19T10:06:07;12.00;99.90
5743;DHT22;2896;53.500;10.020;2023-11-19T10:08:34;12.00;99.90
5743;DHT22;2896;53.500;10.020;2023-11-19T10:11:00;12.00;99.90
5743;DHT22;2896;53.500;10.020;2023-11-19T10:13:29;12.00;99.90
5743;DHT22;2896;53.500;10.020;2023-11-19T10:15:56;12.00;99.90
5743;DHT22;2896;53.500;10.020;2023-11-19T10:18:25;12.10;99.90
5743;DHT22;2896;53.500;10.020;2023-11-19T10:20:53;12.10;99.90
5743;DHT22;2896;53.500;10.020;2023-11-19T10:23:20;12.10;99.90
5743;DHT22;2896;53.500;10.020;2023-11-19T10:25:47;12.20;99.90
5743;DHT22;2896;53.500;10.020;2023-11-19T10:28:15;12.20;99.90
5743;DHT22;2896;53.500;10.020;2023-11-19T10:30:44;12.20;99.90
5743;DHT22;2896;53.500;10.020;2023-11-19T10:33:12;12.00;99.90
5743;DHT22;2896;53.500;10.020;2023-11-19T10:35:52;12.00;99.90
5743;DHT22;2896;53.500;10.020;2023-11-19T10:38:19;11.90;99.90
5743;DHT22;2896;53.500;10.020;2023-11-19T10:40:46;11.90;99.90
5743;DHT22;2896;53.500;10.020;2023-11-19T10:43:13;12.10;99.90
5743;DHT22;2896;53.500;10.020;2023-11-19T10:45:40;12.10;99.90
5743;DHT22;2896;53.500;10.020;2023-11-19T10:48:08;12.10;99.90
5743;DHT22;2896;53.500;10.020;2023-11-19T10:50:36;12.10;99.90
5743;DHT22;2896;53.500;10.020;2023-11-19T10:53:04;12.00;99.90
5743;DHT22;2896;53.500;10.020;2023-11-19T10:55:32;12.10;99.90
5743;DHT22;2896;53.500;10.020;2023-11-19T10:58:01;12.10;99.90
5743;DHT22;2896;53.500;10.020;2023-11-19T11:00:30;12.10;99.90
5743;DHT22;2896;53.500;10.020;2023-11-19T11:03:01;12.10;99.90
5743;DHT22;2896;53.500;10.020;2023-11-19T11:05:32;12.10;99.90
5743;DHT22;2896;53.500;10.020;2023-11-19T11:08:00;12.10;99.90
5743;DHT22;2896;53.500;10.020;2023-11-19T11:10:28;12.00;99.90
5743;DHT22;2896;53.500;10.020;2023-11-19T11:12:59;12.00;99.90
5743;DHT22;2896;53.500;10.020;2023-11-19T11:15:27;12.00;99.90
5743;DHT22;2896;53.500;10.020;2023-11-19T11:17:59;12.00;99.90
5743;DHT22;2896;53.500;10.020;2023-11-19T11:20:27;11.90;99.90
5743;DHT22;2896;53.500;10.020;2023-11-19T11:23:07;11.90;99.90
5743;DHT22;2896;53.500;10.020;2023-11-19T11:25:44;12.20;99.90
5743;DHT22;2896;53.500;10.020;2023-11-19T11:28:26;11.80;99.90
5743;DHT22;2896;53.500;10.020;2023-11-19T11:31:08;11.70;99.90
5743;DHT22;2896;53.500;10.020;2023-11-19T11:33:45;11.80;99.90
5743;DHT22;2896;53.500;10.020;2023-11-19T11:36:20;11.90;99.90
5743;DHT22;2896;53.500;10.020;2023-11-19T11:38:49;11.90;99.90
5743;DHT22;2896;53.500;10.020;2023-11-19T11:41:17;11.90;99.90
5743;DHT22;2896;53.500;10.020;2023-11-19T11:43:45;12.00;99.90
5743;DHT22;2896;53.500;10.020;2023-11-19T11:49:12;12.20;99.90
5743;DHT22;2896;53.500;10.020;2023-11-19T11:52:01;12.30;99.90
5743;DHT22;2896;53.500;10.020;2023-11-19T11:54:31;12.40;99.90
5743;DHT22;2896;53.500;10.020;2023-11-19T11:57:08;12.60;99.90
5743;DHT22;2896;53.500;10.020;2023-11-19T11:59:48;12.60;99.90
5743;DHT22;2896;53.500;10.020;2023-11-19T12:02:16;12.70;99.90
5743;DHT22;2896;53.500;10.020;2023-11-19T12:04:47;12.70;99.90
5743;DHT22;2896;53.500;10.020;2023-11-19T12:07:16;12.50;99.90
5743;DHT22;2896;53.500;10.020;2023-11-19T12:09:48;12.50;99.90
5743;DHT22;2896;53.500;10.020;2023-11-19T12:12:22;12.50;99.90
5743;DHT22;2896;53.500;10.020;2023-11-19T12:15:05;12.40;99.90
5743;DHT22;2896;53.500;10.020;2023-11-19T12:17:37;12.40;99.90
5743;DHT22;2896;53.500;10.020;2023-11-19T12:20:06;12.30;99.90
5743;DHT22;2896;53.500;10.020;2023-11-19T12:22:35;12.40;99.90
5743;DHT22;2896;53.500;10.020;2023-11-19T12:25:04;12.50;99.90
5743;DHT22;2896;53.500;10.020;2023-11-19T12:27:32;12.50;99.90
5743;DHT22;2896;53.500;10.020;2023-11-19T12:29:59;12.60;99.90
5743;DHT22;2896;53.500;10.020;2023-11-19T12:32:25;12.70;99.90
5743;DHT22;2896;53.500;10.020;2023-11-19T12:34:52;12.80;99.90
5743;DHT22;2896;53.500;10.020;2023-11-19T12:37:19;12.80;99.90
5743;DHT22;2896;53.500;10.020;2023-11-19T12:39:46;13.00;99.90
5743;DHT22;2896;53.500;10.020;2023-11-19T12:42:14;15.20;99.90
5743;DHT22;2896;53.500;10.020;2023-11-19T12:44:54;13.10;99.90
5743;DHT22;2896;53.500;10.020;2023-11-19T12:47:21;13.00;99.90
5743;DHT22;2896;53.500;10.020;2023-11-19T12:49:55;13.10;99.90
5743;DHT22;2896;53.500;10.020;2023-11-19T12:52:22;13.00;99.90
5743;DHT22;2896;53.500;10.020;2023-11-19T12:54:49;12.80;99.90
5743;DHT22;2896;53.500;10.020;2023-11-19T12:57:18;12.90;99.90
5743;DHT22;2896;53.500;10.020;2023-11-19T12:59:54;12.90;99.90
5743;DHT22;2896;53.500;10.020;2023-11-19T13:02:22;13.00;99.90
5743;DHT22;2896;53.500;10.020;2023-11-19T13:04:48;13.10;99.90
5743;DHT22;2896;53.500;10.020;2023-11-19T13:07:20;13.20;99.90
5743;DHT22;2896;53.500;10.020;2023-11-19T13:09:47;13.30;99.90
5743;DHT22;2896;53.500;10.020;2023-11-19T13:12:14;13.20;99.90
5743;DHT22;2896;53.500;10.020;2023-11-19T13:14:43;13.30;99.90
5743;DHT22;2896;53.500;10.020;2023-11-19T13:17:15;13.10;99.90
5743;DHT22;2896;53.500;10.020;2023-11-19T13:19:41;13.00;99.90
5743;DHT22;2896;53.500;10.020;2023-11-19T13:22:08;12.90;99.90
5743;DHT22;2896;53.500;10.020;2023-11-19T13:24:35;13.00;99.90
5743;DHT22;2896;53.500;10.020;2023-11-19T13:27:03;13.00;99.90
5743;DHT22;2896;53.500;10.020;2023-11-19T13:29:29;13.10;99.90
5743;DHT22;2896;53.500;10.020;2023-11-19T13:31:57;13.20;99.90
5743;DHT22;2896;53.500;10.020;2023-11-19T13:34:25;13.10;99.90
5743;DHT22;2896;53.500;10.020;2023-11-19T13:36:52;13.20;99.90
5743;DHT22;2896;53.500;10.020;2023-11-19T13:39:18;13.00;1.00
5743;DHT22;2896;53.500;10.020;2023-11-19T13:41:48;13.00;1.00
5743;DHT22;2896;53.500;10.020;2023-11-19T13:44:15;12.90;1.00
5743;DHT22;2896;53.500;10.020;2023-11-19T13:46:44;12.80;1.00
5743;DHT22;2896;53.500;10.020;2023-11-19T13:49:12;12.80;5.80
5743;DHT22;2896;53.500;10.020;2023-11-19T13:51:39;12.90;85.60
5743;DHT22;2896;53.500;10.020;2023-11-19T13:54:05;12.90;99.90
5743;DHT22;2896;53.500;10.020;2023-11-19T13:56:32;12.90;99.90
5743;DHT22;2896;53.500;10.020;2023-11-19T13:58:59;12.80;95.30
5743;DHT22;2896;53.500;10.020;2023-11-19T14:01:26;12.80;99.90
5743;DHT22;2896;53.500;10.020;2023-11-19T14:03:53;12.70;42.40
5743;DHT22;2896;53.500;10.020;2023-11-19T14:06:21;12.60;79.70
5743;DHT22;2896;53.500;10.020;2023-11-19T14:08:47;12.70;99.90
5743;DHT22;2896;53.500;10.020;2023-11-19T14:11:14;12.50;99.90
5743;DHT22;2896;53.500;10.020;2023-11-19T14:13:41;12.40;99.90
5743;DHT22;2896;53.500;10.020;2023-11-19T14:16:08;12.40;99.90
5743;DHT22;2896;53.500;10.020;2023-11-19T14:18:36;12.40;99.90
5743;DHT22;2896;53.500;10.020;2023-11-19T14:21:03;12.40;99.90
5743;DHT22;2896;53.500;10.020;2023-11-19T14:23:31;12.30;99.90
5743;DHT22;2896;53.500;10.020;2023-11-19T14:25:58;12.20;99.90
5743;DHT22;2896;53.500;10.020;2023-11-19T14:28:25;12.20;99.90
5743;DHT22;2896;53.500;10.020;2023-11-19T14:30:51;12.20;99.90
5743;DHT22;2896;53.500;10.020;2023-11-19T14:33:22;12.10;99.90
5743;DHT22;2896;53.500;10.020;2023-11-19T14:35:49;12.00;99.90
5743;DHT22;2896;53.500;10.020;2023-11-19T14:38:15;12.40;99.90
5743;DHT22;2896;53.500;10.020;2023-11-19T14:40:43;11.80;99.90
5743;DHT22;2896;53.500;10.020;2023-11-19T14:43:10;11.90;99.90
5743;DHT22;2896;53.500;10.020;2023-11-19T14:45:36;11.90;99.90
5743;DHT22;2896;53.500;10.020;2023-11-19T14:48:04;11.90;99.90
5743;DHT22;2896;53.500;10.020;2023-11-19T14:50:31;11.90;99.90
5743;DHT22;2896;53.500;10.020;2023-11-19T14:52:58;11.80;99.90
5743;DHT22;2896;53.500;10.020;2023-11-19T14:55:24;11.80;99.90
5743;DHT22;2896;53.500;10.020;2023-11-19T14:57:53;10.30;99.90
5743;DHT22;2896;53.500;10.020;2023-11-19T15:00:20;13.20;99.90
5743;DHT22;2896;53.500;10.020;2023-11-19T15:02:46;11.80;99.90
5743;DHT22;2896;53.500;10.020;2023-11-19T15:05:13;11.70;99.90
5743;DHT22;2896;53.500;10.020;2023-11-19T15:07:40;11.60;99.90
5743;DHT22;2896;53.500;10.020;2023-11-19T15:10:07;11.60;99.90
5743;DHT22;2896;53.500;10.020;2023-11-19T15:12:36;11.50;99.90
5743;DHT22;2896;53.500;10.020;2023-11-19T15:15:07;11.40;99.90
5743;DHT22;2896;53.500;10.020;2023-11-19T15:20:02;11.30;99.90
5743;DHT22;2896;53.500;10.020;2023-11-19T15:22:29;11.30;99.90
5743;DHT22;2896;53.500;10.020;2023-11-19T15:24:56;11.30;99.90
5743;DHT22;2896;53.500;10.020;2023-11-19T15:27:23;11.30;99.90
5743;DHT22;2896;53.500;10.020;2023-11-19T15:29:49;11.20;99.90
5743;DHT22;2896;53.500;10.020;2023-11-19T15:32:17;11.20;99.90
5743;DHT22;2896;53.500;10.020;2023-11-19T15:34:44;11.20;99.90
5743;DHT22;2896;53.500;10.020;2023-11-19T15:37:10;11.20;99.90
5743;DHT22;2896;53.500;10.020;2023-11-19T15:39:39;11.20;99.90
5743;DHT22;2896;53.500;10.020;2023-11-19T15:42:06;11.20;99.90
5743;DHT22;2896;53.500;10.020;2023-11-19T15:44:35;11.20;99.90
5743;DHT22;2896;53.500;10.020;2023-11-19T15:47:02;11.20;99.90
5743;DHT22;2896;53.500;10.020;2023-11-19T15:49:30;11.20;99.90
5743;DHT22;2896;53.500;10.020;2023-11-19T15:51:56;11.30;99.90
5743;DHT22;2896;53.500;10.020;2023-11-19T15:54:23;11.20;99.90
5743;DHT22;2896;53.500;10.020;2023-11-19T15:56:50;11.20;99.90
5743;DHT22;2896;53.500;10.020;2023-11-19T15:59:16;11.10;99.90
5743;DHT22;2896;53.500;10.020;2023-11-19T16:01:43;11.10;99.90